« Back
NWS Peachtree City, Ga » Text Product » AHN Terminal Aerodrome Forecast


Printer-friendly Version
Current Version              Previous Versions:   1  2  3  4  5  6  7  8  9  

Terminal Aerodrome Forecast

534
FTAK31 PAJN 012300
TAFAHN
TAF
PAHN 012330Z 0200/0224 31010KT P6SM -SHRA SCT025 BKN050 OVC070
     FM020600 32003KT P6SM SCT050 BKN080
     FM021000 07003KT 4SM BR FEW007 SCT080
     FM021600 07006KT P6SM SCT050 SCT080
     FM021900 12009KT P6SM SCT015 BKN040 BKN060
      AMD LTD TO CLD VIS AND WIND=



USA.gov is the U.S. government's official web portal to all federal, state and local government web resources and services.